Time;durP1;ratioP1;P1;durP2;ratioP2;P2;SDS_P1;SDS_P2;PMS_P1;PMS_P2;Temp;Humidity;BMP_temperature;BMP_pressure;BME280_temperature;BME280_humidity;BME280_pressure;Samples;Min_cycle;Max_cycle;Signal;HPM_P1;HPM_P2
2023/07/21 00:01:22;;;;;;;2.13;2.03;;;26.40;39.20;;;;;;5054461;28;20196;-44
2023/07/21 00:03:48;;;;;;;1.90;1.80;;;26.50;39.00;;;;;;5049291;28;20228;-44
2023/07/21 00:06:17;;;;;;;2.53;1.90;;;26.40;39.20;;;;;;5049481;28;20192;-46
2023/07/21 00:08:43;;;;;;;3.00;1.90;;;26.40;39.30;;;;;;5047809;28;20443;-44
2023/07/21 00:11:09;;;;;;;2.00;1.87;;;26.40;39.20;;;;;;5048790;28;20705;-45
2023/07/21 00:13:36;;;;;;;4.93;2.03;;;26.40;38.90;;;;;;5048463;28;20925;-44
2023/07/21 00:16:03;;;;;;;2.20;2.00;;;26.20;39.30;;;;;;5049405;28;20475;-43
2023/07/21 00:18:30;;;;;;;2.57;2.37;;;26.30;39.30;;;;;;5048712;28;20864;-45
2023/07/21 00:20:55;;;;;;;2.70;1.63;;;26.30;39.30;;;;;;5051941;28;20447;-45
2023/07/21 00:23:24;;;;;;;1.90;1.80;;;26.10;39.90;;;;;;5049234;28;20506;-44
2023/07/21 00:25:50;;;;;;;4.20;2.00;;;26.10;40.10;;;;;;5050466;28;20200;-44
2023/07/21 00:28:17;;;;;;;1.97;1.77;;;26.10;40.40;;;;;;5050254;28;20860;-45
2023/07/21 00:30:45;;;;;;;2.70;2.23;;;26.10;40.30;;;;;;5050919;28;20426;-44
2023/07/21 00:33:11;;;;;;;2.60;2.40;;;26.00;39.90;;;;;;5048993;28;20446;-48
2023/07/21 00:35:36;;;;;;;2.57;2.13;;;25.90;40.20;;;;;;5060116;28;20448;-44
2023/07/21 00:38:03;;;;;;;2.63;2.43;;;25.90;40.80;;;;;;5054582;28;20192;-44
2023/07/21 00:40:30;;;;;;;1.90;1.80;;;26.00;40.60;;;;;;5054031;28;20195;-45
2023/07/21 00:42:57;;;;;;;3.80;2.40;;;26.10;40.40;;;;;;5049597;28;20490;-45
2023/07/21 00:45:23;;;;;;;2.10;1.80;;;26.10;40.40;;;;;;5055781;28;20446;-45
2023/07/21 00:47:49;;;;;;;2.40;2.20;;;26.20;40.20;;;;;;5052704;28;20439;-44
2023/07/21 00:50:16;;;;;;;2.63;1.77;;;26.30;40.10;;;;;;5051051;28;20196;-48
2023/07/21 00:52:42;;;;;;;3.50;2.23;;;26.30;40.10;;;;;;5051236;28;20648;-45
2023/07/21 00:55:09;;;;;;;3.10;1.97;;;26.30;39.90;;;;;;5048136;28;20439;-48
2023/07/21 00:57:35;;;;;;;3.30;1.80;;;26.30;40.30;;;;;;5050133;28;20484;-46
2023/07/21 01:00:12;;;;;;;2.70;1.83;;;26.30;40.20;;;;;;5049966;28;20432;-44
2023/07/21 01:02:39;;;;;;;2.13;2.03;;;26.30;40.40;;;;;;5049926;28;20435;-46
2023/07/21 01:05:06;;;;;;;2.13;1.93;;;26.30;40.50;;;;;;5053923;28;20443;-45
2023/07/21 01:07:34;;;;;;;2.20;2.00;;;26.30;40.30;;;;;;5049759;28;20586;-44
2023/07/21 01:10:01;;;;;;;2.83;2.23;;;26.30;40.20;;;;;;5049442;28;20513;-45
2023/07/21 01:12:26;;;;;;;2.07;1.87;;;26.30;40.30;;;;;;5043113;28;20594;-50
2023/07/21 01:14:52;;;;;;;2.80;2.17;;;26.40;40.30;;;;;;5041750;28;20593;-46
2023/07/21 01:17:19;;;;;;;2.93;2.03;;;26.40;40.00;;;;;;5049359;28;20203;-44
2023/07/21 01:19:48;;;;;;;4.13;2.37;;;26.50;39.70;;;;;;5050676;28;20473;-47
2023/07/21 01:22:24;;;;;;;2.50;2.30;;;26.50;39.80;;;;;;5044118;28;20523;-48
2023/07/21 01:24:49;;;;;;;2.43;2.23;;;26.40;40.20;;;;;;5039001;28;20524;-45
2023/07/21 01:27:20;;;;;;;3.60;2.53;;;26.40;40.00;;;;;;5044515;28;20791;-45
2023/07/21 01:29:46;;;;;;;3.87;2.00;;;26.50;40.00;;;;;;5057317;28;20197;-45
2023/07/21 01:32:14;;;;;;;2.20;2.00;;;26.40;40.70;;;;;;5050423;28;20824;-46
2023/07/21 01:34:41;;;;;;;2.60;2.40;;;26.40;40.20;;;;;;5045345;28;20440;-46
2023/07/21 01:37:08;;;;;;;2.93;2.10;;;26.50;40.00;;;;;;5049498;28;20446;-45
2023/07/21 01:39:35;;;;;;;3.70;2.10;;;26.50;39.90;;;;;;5051648;28;20446;-49
2023/07/21 01:42:02;;;;;;;2.30;2.03;;;26.50;39.90;;;;;;5052204;28;20462;-45
2023/07/21 01:44:28;;;;;;;1.90;1.80;;;26.40;40.00;;;;;;5051213;28;20499;-45
2023/07/21 01:46:54;;;;;;;2.63;2.10;;;26.40;40.10;;;;;;5056128;28;20453;-45
2023/07/21 01:49:20;;;;;;;2.03;1.83;;;26.40;40.30;;;;;;5048493;28;20305;-45
2023/07/21 01:51:48;;;;;;;7.10;2.00;;;26.40;40.20;;;;;;5052708;28;20196;-44
2023/07/21 01:54:27;;;;;;;2.43;2.20;;;26.40;40.70;;;;;;5045723;28;20243;-45
2023/07/21 01:56:59;;;;;;;2.43;2.23;;;26.50;39.80;;;;;;5049370;28;20442;-48
2023/07/21 01:59:25;;;;;;;2.27;1.70;;;26.40;40.20;;;;;;5058541;28;20930;-44
2023/07/21 02:01:54;;;;;;;2.33;2.13;;;26.40;40.20;;;;;;5047653;28;20446;-46
2023/07/21 02:04:21;;;;;;;2.17;2.00;;;26.40;40.10;;;;;;5055323;28;20578;-46
2023/07/21 02:06:47;;;;;;;5.27;2.10;;;26.40;40.20;;;;;;5051315;28;20811;-44
2023/07/21 02:09:13;;;;;;;2.67;2.20;;;26.30;40.30;;;;;;5047880;28;20427;-45
2023/07/21 02:11:40;;;;;;;2.47;2.27;;;26.40;40.30;;;;;;5044264;28;20201;-48
2023/07/21 02:14:06;;;;;;;3.23;2.10;;;26.40;40.20;;;;;;5051408;28;20509;-44
2023/07/21 02:16:32;;;;;;;3.43;2.77;;;26.40;40.20;;;;;;5048449;28;22589;-44
2023/07/21 02:18:58;;;;;;;1.70;1.60;;;26.40;40.30;;;;;;5053348;28;20275;-48
2023/07/21 02:21:23;;;;;;;2.37;2.17;;;26.40;40.30;;;;;;5052812;28;20679;-44
2023/07/21 02:23:49;;;;;;;2.60;2.40;;;26.40;40.40;;;;;;5043759;28;20271;-46
2023/07/21 02:26:15;;;;;;;3.67;1.80;;;26.40;40.40;;;;;;5058956;28;20200;-47
2023/07/21 02:28:41;;;;;;;2.60;2.03;;;26.30;40.40;;;;;;5067467;28;20242;-46
2023/07/21 02:31:09;;;;;;;1.93;1.83;;;26.30;40.50;;;;;;5042207;28;20243;-46
2023/07/21 02:33:35;;;;;;;2.23;2.13;;;26.20;40.60;;;;;;5047092;28;20199;-48
2023/07/21 02:36:03;;;;;;;2.67;2.47;;;26.30;40.50;;;;;;5052121;28;20439;-50
2023/07/21 02:38:28;;;;;;;3.73;2.37;;;26.40;40.50;;;;;;5048585;28;20188;-47
2023/07/21 02:40:55;;;;;;;2.37;2.03;;;26.40;40.20;;;;;;5049727;28;20447;-48
2023/07/21 02:43:23;;;;;;;2.13;1.93;;;26.40;40.20;;;;;;5051320;28;20232;-45
2023/07/21 02:45:53;;;;;;;6.50;2.10;;;26.30;40.20;;;;;;5058399;28;20446;-45
2023/07/21 02:48:19;;;;;;;2.10;1.90;;;26.20;40.40;;;;;;5048775;28;20504;-49
2023/07/21 02:50:49;;;;;;;2.30;2.20;;;26.30;40.60;;;;;;5050367;28;20450;-49
2023/07/21 02:53:16;;;;;;;2.70;2.27;;;26.30;40.30;;;;;;5062446;28;20492;-47
2023/07/21 02:55:42;;;;;;;2.77;2.47;;;26.30;40.20;;;;;;5047647;28;20444;-49
2023/07/21 02:58:09;;;;;;;2.40;2.20;;;26.30;40.00;;;;;;5042701;28;20501;-47
2023/07/21 03:00:35;;;;;;;2.73;2.13;;;26.30;40.50;;;;;;5055639;28;20432;-49
2023/07/21 03:03:01;;;;;;;6.20;2.43;;;26.20;40.50;;;;;;5050454;28;20478;-48
2023/07/21 03:05:29;;;;;;;2.30;2.10;;;26.30;40.60;;;;;;5048789;28;20250;-47
2023/07/21 03:07:56;;;;;;;2.97;1.90;;;26.30;40.70;;;;;;5055722;28;20532;-47
2023/07/21 03:10:22;;;;;;;3.30;2.10;;;26.30;40.60;;;;;;5051268;28;20439;-50
2023/07/21 03:12:47;;;;;;;6.67;2.50;;;26.20;40.70;;;;;;5047579;28;20490;-46
2023/07/21 03:15:14;;;;;;;2.27;2.00;;;26.20;40.70;;;;;;5044635;28;20556;-49
2023/07/21 03:17:40;;;;;;;2.30;2.10;;;26.20;40.80;;;;;;5055636;28;20195;-48
2023/07/21 03:20:11;;;;;;;2.40;2.20;;;26.30;40.70;;;;;;5050037;28;20817;-47
2023/07/21 03:22:37;;;;;;;2.10;2.00;;;26.30;40.60;;;;;;5052119;28;20250;-45
2023/07/21 03:25:06;;;;;;;3.37;2.27;;;26.20;40.60;;;;;;5048181;28;20799;-44
2023/07/21 03:27:35;;;;;;;2.60;2.40;;;26.10;40.80;;;;;;5050629;28;20443;-45
2023/07/21 03:30:01;;;;;;;3.20;2.20;;;26.10;41.00;;;;;;5047595;28;20454;-48
2023/07/21 03:32:27;;;;;;;2.37;2.07;;;26.10;41.20;;;;;;5046953;28;20939;-50
2023/07/21 03:34:54;;;;;;;2.80;2.20;;;26.10;41.00;;;;;;5048293;28;20447;-44
2023/07/21 03:37:30;;;;;;;4.00;2.37;;;26.20;40.80;;;;;;5051732;28;20495;-49
2023/07/21 03:39:56;;;;;;;2.20;2.00;;;26.20;40.70;;;;;;5048964;28;20443;-48
2023/07/21 03:42:23;;;;;;;2.60;2.40;;;26.20;40.90;;;;;;5047508;28;20473;-49
2023/07/21 03:44:49;;;;;;;2.17;1.90;;;26.20;40.80;;;;;;5045222;28;20486;-47
2023/07/21 03:47:20;;;;;;;3.10;2.40;;;26.10;40.90;;;;;;5041303;28;20477;-48
2023/07/21 03:49:46;;;;;;;2.70;2.30;;;25.90;41.40;;;;;;5049927;28;20522;-48
2023/07/21 03:52:13;;;;;;;4.00;2.43;;;26.10;41.30;;;;;;5049572;28;20439;-45
2023/07/21 03:54:38;;;;;;;3.93;2.50;;;26.10;41.30;;;;;;5049436;28;20440;-45
2023/07/21 03:57:05;;;;;;;2.37;2.17;;;26.10;40.90;;;;;;5049908;28;20496;-45
2023/07/21 03:59:30;;;;;;;3.07;2.27;;;26.20;40.90;;;;;;5048533;28;20197;-46
2023/07/21 04:01:56;;;;;;;2.83;2.37;;;26.10;41.00;;;;;;5058419;28;20434;-48
2023/07/21 04:04:22;;;;;;;3.70;2.20;;;26.10;40.90;;;;;;5050236;28;20703;-49
2023/07/21 04:06:47;;;;;;;2.83;2.27;;;26.10;40.90;;;;;;5047450;28;20670;-44
2023/07/21 04:09:13;;;;;;;2.23;2.03;;;26.00;40.90;;;;;;5050115;28;20228;-45
2023/07/21 04:11:39;;;;;;;2.63;2.30;;;26.00;41.30;;;;;;5047404;28;20192;-45
2023/07/21 04:14:05;;;;;;;2.60;2.30;;;26.00;41.30;;;;;;5047898;28;20227;-45
2023/07/21 04:16:31;;;;;;;3.53;2.30;;;25.80;41.60;;;;;;5051113;28;20505;-46
2023/07/21 04:18:57;;;;;;;2.80;2.60;;;25.90;41.50;;;;;;5047657;28;20581;-45
2023/07/21 04:21:22;;;;;;;2.67;2.27;;;25.90;41.30;;;;;;5046279;28;20198;-46
2023/07/21 04:23:48;;;;;;;2.60;2.30;;;25.70;41.50;;;;;;5057058;28;20228;-51
2023/07/21 04:26:14;;;;;;;2.77;2.40;;;25.50;42.30;;;;;;5046213;28;20535;-46
2023/07/21 04:28:41;;;;;;;2.17;1.97;;;25.40;42.30;;;;;;5045592;28;20199;-45
2023/07/21 04:31:07;;;;;;;4.83;2.50;;;25.30;42.90;;;;;;5045200;28;21631;-46
2023/07/21 04:33:32;;;;;;;3.93;2.40;;;25.50;42.60;;;;;;5044555;28;21199;-46
2023/07/21 04:35:59;;;;;;;2.73;2.53;;;25.50;42.50;;;;;;5049355;28;20188;-46
2023/07/21 04:38:25;;;;;;;2.80;2.40;;;25.60;42.30;;;;;;5050499;28;20199;-50
2023/07/21 04:40:52;;;;;;;2.57;2.33;;;25.70;42.30;;;;;;5048268;28;20451;-45
2023/07/21 04:43:17;;;;;;;2.33;2.13;;;25.80;42.10;;;;;;5048201;28;20228;-47
2023/07/21 04:45:43;;;;;;;2.60;2.40;;;25.90;41.50;;;;;;5059666;28;20426;-50
2023/07/21 04:48:08;;;;;;;2.50;2.17;;;25.80;42.00;;;;;;5050623;28;20632;-49
2023/07/21 04:50:34;;;;;;;2.30;2.10;;;25.90;42.00;;;;;;5048965;28;20559;-51
2023/07/21 04:53:01;;;;;;;3.43;3.13;;;26.00;41.80;;;;;;5049139;28;20200;-46
2023/07/21 04:55:27;;;;;;;2.80;2.60;;;26.10;41.50;;;;;;5049863;28;20877;-50
2023/07/21 04:57:53;;;;;;;2.67;1.93;;;26.20;41.40;;;;;;5049737;28;20439;-46
2023/07/21 05:00:19;;;;;;;2.37;2.17;;;26.10;41.30;;;;;;5048106;28;20200;-49
2023/07/21 05:02:45;;;;;;;2.80;2.53;;;26.10;41.50;;;;;;5047603;28;20453;-49
2023/07/21 05:05:10;;;;;;;2.73;2.50;;;25.80;41.90;;;;;;5049515;28;20658;-47
2023/07/21 05:07:36;;;;;;;3.17;2.23;;;25.80;42.10;;;;;;5048629;28;20188;-50
2023/07/21 05:10:03;;;;;;;2.33;2.13;;;25.70;42.40;;;;;;5046602;28;21000;-46
2023/07/21 05:12:28;;;;;;;2.80;2.50;;;25.70;42.50;;;;;;5042621;28;20428;-47
2023/07/21 05:14:54;;;;;;;2.60;2.40;;;25.80;42.00;;;;;;5047278;28;20486;-48
2023/07/21 05:17:20;;;;;;;3.40;2.93;;;26.10;41.70;;;;;;5048896;28;20277;-45
2023/07/21 05:19:45;;;;;;;7.07;2.80;;;26.30;41.10;;;;;;5046166;28;20603;-45
2023/07/21 05:22:12;;;;;;;3.10;2.90;;;26.50;40.40;;;;;;5045461;28;20275;-45
2023/07/21 05:24:37;;;;;;;3.67;3.37;;;26.60;40.10;;;;;;5045261;28;20229;-48
2023/07/21 05:27:05;;;;;;;4.33;2.80;;;26.60;39.80;;;;;;5047599;28;20534;-46
2023/07/21 05:29:32;;;;;;;4.97;2.90;;;26.70;39.70;;;;;;5044353;28;20447;-48
2023/07/21 05:31:57;;;;;;;3.60;2.70;;;26.70;39.70;;;;;;5045960;28;20483;-45
2023/07/21 05:34:23;;;;;;;3.87;2.30;;;26.60;39.80;;;;;;5040893;28;20448;-45
2023/07/21 05:36:49;;;;;;;5.33;2.90;;;26.60;40.00;;;;;;5051181;28;20208;-46
2023/07/21 05:39:14;;;;;;;3.40;3.00;;;26.60;40.00;;;;;;5055301;28;20191;-46
2023/07/21 05:41:40;;;;;;;3.60;2.47;;;26.50;40.10;;;;;;5049912;28;20543;-46
2023/07/21 05:44:06;;;;;;;2.93;2.63;;;26.60;39.90;;;;;;5050757;28;20228;-44
2023/07/21 05:46:31;;;;;;;2.83;2.07;;;26.50;39.90;;;;;;5053431;28;20439;-46
2023/07/21 05:48:57;;;;;;;4.57;3.23;;;26.50;40.10;;;;;;5050986;28;20202;-45
2023/07/21 05:51:23;;;;;;;4.47;2.83;;;26.40;40.30;;;;;;5049010;28;20196;-45
2023/07/21 05:53:49;;;;;;;3.70;3.03;;;26.40;40.60;;;;;;5049143;28;20192;-45
2023/07/21 05:56:14;;;;;;;2.80;2.60;;;26.40;40.50;;;;;;5048805;28;20212;-49
2023/07/21 05:58:41;;;;;;;3.10;2.80;;;26.40;40.60;;;;;;5049732;28;20587;-45
2023/07/21 06:01:10;;;;;;;2.97;2.77;;;26.40;40.80;;;;;;5051528;28;20639;-44
2023/07/21 06:03:37;;;;;;;3.67;2.57;;;26.40;40.80;;;;;;5047230;28;20910;-46
2023/07/21 06:06:04;;;;;;;3.90;2.57;;;26.20;40.80;;;;;;5048857;28;20816;-45
2023/07/21 06:08:30;;;;;;;3.50;2.40;;;26.30;41.00;;;;;;5051189;28;20427;-45
2023/07/21 06:11:00;;;;;;;3.60;3.10;;;26.40;41.00;;;;;;5051772;28;20497;-46
2023/07/21 06:13:29;;;;;;;2.83;2.63;;;26.50;40.50;;;;;;5049759;28;20446;-47
2023/07/21 06:15:55;;;;;;;3.23;2.47;;;26.60;40.30;;;;;;5037338;28;20443;-45
2023/07/21 06:18:21;;;;;;;3.33;2.43;;;26.60;40.30;;;;;;5050561;28;20463;-45
2023/07/21 06:20:47;;;;;;;2.63;2.43;;;26.60;40.40;;;;;;5057752;28;21159;-45
2023/07/21 06:23:13;;;;;;;3.30;2.77;;;26.50;40.10;;;;;;5053532;28;20586;-44
2023/07/21 06:25:39;;;;;;;3.40;2.47;;;26.50;40.20;;;;;;5050124;28;20440;-45
2023/07/21 06:28:05;;;;;;;4.80;2.37;;;26.40;40.10;;;;;;5055359;28;20192;-44
2023/07/21 06:30:30;;;;;;;4.00;2.90;;;26.50;40.40;;;;;;5053853;28;20488;-45
2023/07/21 06:32:56;;;;;;;4.80;2.90;;;26.60;40.20;;;;;;5049406;28;20648;-47
2023/07/21 06:35:22;;;;;;;3.60;2.40;;;26.50;39.50;;;;;;5053243;28;20199;-44
2023/07/21 06:37:47;;;;;;;2.53;2.33;;;26.60;40.00;;;;;;5052339;28;20205;-44
2023/07/21 06:40:13;;;;;;;3.30;2.57;;;26.70;39.80;;;;;;5066008;28;20707;-45
2023/07/21 06:42:44;;;;;;;4.30;2.93;;;26.80;39.60;;;;;;5053872;28;20193;-44
2023/07/21 06:45:10;;;;;;;5.50;2.33;;;26.90;39.50;;;;;;5053744;28;20196;-44
2023/07/21 06:47:36;;;;;;;4.83;2.50;;;26.90;39.40;;;;;;5048705;28;20453;-44
2023/07/21 06:50:02;;;;;;;4.20;2.60;;;27.00;39.50;;;;;;5048700;28;20450;-44
2023/07/21 06:52:27;;;;;;;4.27;2.33;;;27.10;38.60;;;;;;5053762;28;20241;-44
2023/07/21 06:54:53;;;;;;;2.80;2.60;;;27.20;38.40;;;;;;5053569;28;20275;-44
2023/07/21 06:57:19;;;;;;;4.70;2.63;;;27.30;38.30;;;;;;5053975;28;20199;-44
2023/07/21 06:59:45;;;;;;;2.50;2.17;;;27.30;37.10;;;;;;5051459;28;20195;-45
2023/07/21 07:02:12;;;;;;;3.37;2.27;;;27.40;37.20;;;;;;5052905;28;20574;-49
2023/07/21 07:04:39;;;;;;;3.03;2.17;;;27.60;37.10;;;;;;5053075;28;20569;-48
2023/07/21 07:07:05;;;;;;;5.40;2.33;;;27.70;37.30;;;;;;5053712;28;20446;-46
2023/07/21 07:09:31;;;;;;;3.87;2.00;;;27.70;36.80;;;;;;5051215;28;20451;-47
2023/07/21 07:11:57;;;;;;;2.70;2.50;;;27.80;37.20;;;;;;5048912;28;20276;-49
2023/07/21 07:14:22;;;;;;;2.40;2.20;;;27.80;37.30;;;;;;5052107;28;20322;-49
2023/07/21 07:16:48;;;;;;;2.93;2.40;;;27.90;37.20;;;;;;5053138;28;20913;-46
2023/07/21 07:19:13;;;;;;;2.77;2.53;;;27.90;37.10;;;;;;5054140;28;20189;-48
2023/07/21 07:21:39;;;;;;;3.00;2.53;;;27.80;36.50;;;;;;5050148;28;20640;-48
2023/07/21 07:24:05;;;;;;;4.17;2.40;;;27.80;36.60;;;;;;5052702;28;20602;-46
2023/07/21 07:26:31;;;;;;;2.40;2.20;;;28.00;37.00;;;;;;5052775;28;20427;-47
2023/07/21 07:28:57;;;;;;;5.43;2.17;;;28.00;36.60;;;;;;5053635;28;20200;-48
2023/07/21 07:31:23;;;;;;;5.00;2.80;;;27.90;36.30;;;;;;5052360;28;20432;-48
2023/07/21 07:33:49;;;;;;;3.63;2.73;;;27.90;36.50;;;;;;5048839;28;20811;-50
2023/07/21 07:36:14;;;;;;;5.37;2.50;;;27.70;36.40;;;;;;5052559;28;20562;-49
2023/07/21 07:38:40;;;;;;;4.70;2.30;;;27.50;36.90;;;;;;5053500;28;20193;-45
2023/07/21 07:41:09;;;;;;;2.17;2.07;;;27.30;37.50;;;;;;5052270;28;20189;-44
2023/07/21 07:43:35;;;;;;;3.00;2.40;;;27.40;38.00;;;;;;5051595;28;20517;-49
2023/07/21 07:46:03;;;;;;;3.83;3.40;;;27.50;37.90;;;;;;5060016;28;20456;-50
2023/07/21 07:48:28;;;;;;;4.40;2.60;;;27.80;37.90;;;;;;5051664;28;20435;-49
2023/07/21 07:50:55;;;;;;;3.40;2.60;;;27.90;37.60;;;;;;5049685;28;20442;-47
2023/07/21 07:53:21;;;;;;;3.40;2.13;;;28.00;37.30;;;;;;5052778;28;20196;-48
2023/07/21 07:55:46;;;;;;;11.10;2.80;;;28.00;37.10;;;;;;5052690;28;20538;-48
2023/07/21 07:58:12;;;;;;;5.57;2.60;;;28.20;37.20;;;;;;5052769;28;20519;-45
2023/07/21 08:00:41;;;;;;;3.33;2.30;;;28.30;37.10;;;;;;5048396;28;20203;-49
2023/07/21 08:03:09;;;;;;;4.07;2.40;;;28.40;36.70;;;;;;5046432;28;20613;-48
2023/07/21 08:05:36;;;;;;;3.07;2.30;;;28.60;36.20;;;;;;5048528;28;20539;-48
2023/07/21 08:08:02;;;;;;;2.97;2.73;;;28.80;35.60;;;;;;5050193;28;20491;-49
2023/07/21 08:10:29;;;;;;;4.90;2.47;;;29.00;34.60;;;;;;5044046;28;20804;-48
2023/07/21 08:12:55;;;;;;;5.50;2.57;;;29.10;34.90;;;;;;5044236;28;20446;-47
2023/07/21 08:15:22;;;;;;;3.20;2.37;;;29.20;34.20;;;;;;5047494;28;20475;-48
2023/07/21 08:17:48;;;;;;;3.40;2.37;;;29.20;34.70;;;;;;5050189;28;20857;-45
2023/07/21 08:20:13;;;;;;;8.10;3.10;;;29.30;34.50;;;;;;5050504;28;20449;-49
2023/07/21 08:22:39;;;;;;;3.60;2.60;;;29.40;34.10;;;;;;5050587;28;20443;-49
2023/07/21 08:25:05;;;;;;;3.00;2.80;;;29.50;34.30;;;;;;5050159;28;20224;-46
2023/07/21 08:27:34;;;;;;;6.93;2.40;;;29.50;33.50;;;;;;5051008;28;20730;-44
2023/07/21 08:29:59;;;;;;;2.57;2.07;;;29.50;33.60;;;;;;5044583;28;20813;-47
2023/07/21 08:32:25;;;;;;;2.43;2.23;;;29.60;33.70;;;;;;5050197;28;20447;-46
2023/07/21 08:34:51;;;;;;;5.53;2.00;;;29.70;33.60;;;;;;5049899;28;20207;-46
2023/07/21 08:37:16;;;;;;;2.33;1.80;;;29.80;33.30;;;;;;5058801;28;20246;-50
2023/07/21 08:39:42;;;;;;;1.70;1.60;;;29.90;33.30;;;;;;5051439;28;20200;-46
2023/07/21 08:42:12;;;;;;;3.03;1.67;;;30.20;33.60;;;;;;5050914;28;20233;-45
2023/07/21 08:44:38;;;;;;;2.63;2.10;;;30.30;31.20;;;;;;5049478;28;20221;-44
2023/07/21 08:47:05;;;;;;;2.03;1.90;;;30.50;31.80;;;;;;5048964;28;20505;-50
2023/07/21 08:49:30;;;;;;;1.80;1.70;;;30.60;31.80;;;;;;5048380;28;20442;-44
2023/07/21 08:51:56;;;;;;;2.27;2.07;;;30.70;30.90;;;;;;5042269;28;20442;-46
2023/07/21 08:54:22;;;;;;;3.97;1.80;;;30.80;31.70;;;;;;5050596;28;20184;-48
2023/07/21 08:56:48;;;;;;;2.13;2.00;;;30.80;31.50;;;;;;5034646;28;20192;-46
2023/07/21 08:59:13;;;;;;;2.65;2.45;;;30.80;30.90;;;;;;5041929;28;20447;-48
2023/07/21 09:01:39;;;;;;;3.20;2.20;;;30.90;30.70;;;;;;5046789;28;20227;-48
2023/07/21 09:04:20;;;;;;;5.23;2.03;;;30.90;30.80;;;;;;5047787;28;20307;-48
2023/07/21 09:06:53;;;;;;;3.77;2.33;;;31.00;30.40;;;;;;5042530;28;20234;-46
2023/07/21 09:09:21;;;;;;;3.07;1.97;;;31.10;31.00;;;;;;5045771;28;20478;-48
2023/07/21 09:11:47;;;;;;;2.83;2.53;;;31.10;30.20;;;;;;5047068;28;20493;-51
2023/07/21 09:14:14;;;;;;;2.13;1.97;;;31.20;31.30;;;;;;5047083;28;20528;-50
2023/07/21 09:16:40;;;;;;;4.37;1.90;;;31.20;31.00;;;;;;5046484;28;20441;-49
2023/07/21 09:19:06;;;;;;;4.40;1.97;;;31.30;30.00;;;;;;5049470;28;20446;-51
2023/07/21 09:21:35;;;;;;;3.50;2.07;;;31.40;29.90;;;;;;5049706;28;20188;-48
2023/07/21 09:24:05;;;;;;;3.20;1.60;;;31.40;29.90;;;;;;5047797;28;20561;-50
2023/07/21 09:26:32;;;;;;;2.60;2.40;;;31.40;29.50;;;;;;5050016;28;20447;-47
2023/07/21 09:28:58;;;;;;;3.37;3.13;;;31.40;29.10;;;;;;5045476;28;20983;-50
2023/07/21 09:31:28;;;;;;;5.37;4.97;;;31.60;28.80;;;;;;5061526;28;20833;-50
2023/07/21 09:33:54;;;;;;;3.80;3.10;;;31.80;28.70;;;;;;5049552;28;20500;-50
2023/07/21 09:36:22;;;;;;;4.50;2.07;;;32.00;28.50;;;;;;5050027;28;20462;-49
2023/07/21 09:38:50;;;;;;;3.40;3.03;;;32.10;28.00;;;;;;5050840;28;20514;-46
2023/07/21 09:41:23;;;;;;;4.33;2.17;;;32.20;28.30;;;;;;5047822;28;20447;-47
2023/07/21 09:43:51;;;;;;;2.60;1.57;;;32.30;27.20;;;;;;5050604;28;20903;-48
2023/07/21 09:46:17;;;;;;;2.80;1.90;;;32.30;26.90;;;;;;5037132;28;20913;-50
2023/07/21 09:48:44;;;;;;;2.43;1.90;;;32.40;27.20;;;;;;5050613;28;20451;-50
2023/07/21 09:51:10;;;;;;;4.00;2.20;;;32.40;27.50;;;;;;5046951;28;20184;-46
2023/07/21 09:53:43;;;;;;;2.60;1.70;;;32.50;27.20;;;;;;5044359;28;20863;-47
2023/07/21 09:56:10;;;;;;;4.53;2.87;;;32.60;26.70;;;;;;5049942;28;20434;-47
2023/07/21 09:58:38;;;;;;;2.90;2.03;;;32.70;26.50;;;;;;5053760;28;20438;-51
2023/07/21 10:01:05;;;;;;;2.33;1.63;;;32.80;26.50;;;;;;5049562;28;20438;-49
2023/07/21 10:03:32;;;;;;;2.13;1.43;;;32.90;26.60;;;;;;5052127;28;20839;-47
2023/07/21 10:05:59;;;;;;;3.33;1.93;;;33.00;26.60;;;;;;5052459;28;20443;-49
2023/07/21 10:08:31;;;;;;;3.23;1.90;;;33.10;27.10;;;;;;5052133;28;20447;-47
2023/07/21 10:10:58;;;;;;;2.90;1.93;;;33.10;26.50;;;;;;5051153;28;20941;-49
2023/07/21 10:13:30;;;;;;;3.47;1.90;;;33.20;26.10;;;;;;5054233;28;20437;-49
2023/07/21 10:16:06;;;;;;;2.43;1.77;;;33.20;26.30;;;;;;5054124;28;20419;-50
2023/07/21 10:18:31;;;;;;;1.93;1.83;;;33.40;26.40;;;;;;5053856;28;21007;-46
2023/07/21 10:20:58;;;;;;;2.60;1.50;;;33.40;26.60;;;;;;5053124;28;20450;-48
2023/07/21 10:23:33;;;;;;;2.20;1.70;;;33.50;26.70;;;;;;5050835;28;20218;-48
2023/07/21 10:26:03;;;;;;;2.10;1.90;;;33.70;26.30;;;;;;5050753;28;20454;-49
2023/07/21 10:28:34;;;;;;;3.97;1.87;;;33.70;26.40;;;;;;5052508;28;20478;-50
2023/07/21 10:31:21;;;;;;;1.80;1.70;;;33.50;26.10;;;;;;5051179;28;20941;-48
2023/07/21 10:34:11;;;;;;;2.07;1.97;;;33.50;26.50;;;;;;5054099;28;20481;-46
2023/07/21 10:36:52;;;;;;;2.60;1.87;;;33.60;26.00;;;;;;5053199;28;20431;-49
2023/07/21 10:39:52;;;;;;;2.27;1.80;;;33.70;26.50;;;;;;5050708;28;20446;-45
2023/07/21 10:42:17;;;;;;;2.20;1.70;;;33.60;26.30;;;;;;5052382;28;20526;-49
2023/07/21 10:44:47;;;;;;;2.60;1.97;;;33.60;26.30;;;;;;5052893;28;20593;-48
2023/07/21 10:47:21;;;;;;;2.17;1.70;;;33.50;25.70;;;;;;5052655;28;20220;-48
2023/07/21 10:49:47;;;;;;;7.60;2.07;;;33.50;25.80;;;;;;5039242;28;20447;-50
2023/07/21 10:52:14;;;;;;;3.60;1.60;;;33.40;26.60;;;;;;5045320;28;20574;-46
2023/07/21 10:54:40;;;;;;;2.73;1.63;;;33.50;26.50;;;;;;5049264;28;20922;-50
2023/07/21 10:57:06;;;;;;;2.30;1.63;;;33.60;27.00;;;;;;5051276;28;21369;-45
2023/07/21 10:59:34;;;;;;;4.70;2.10;;;33.80;26.40;;;;;;5051572;28;20538;-46
2023/07/21 11:02:02;;;;;;;3.70;2.13;;;33.90;25.90;;;;;;5045280;28;20446;-47
2023/07/21 11:04:29;;;;;;;4.80;1.60;;;34.00;25.50;;;;;;5048757;28;20493;-45
2023/07/21 11:06:57;;;;;;;3.07;1.83;;;33.80;25.40;;;;;;5049059;28;20819;-45
2023/07/21 11:09:24;;;;;;;4.60;2.50;;;33.60;26.70;;;;;;5049937;28;20489;-47
2023/07/21 11:11:56;;;;;;;1.77;1.50;;;33.70;26.10;;;;;;5049946;28;20470;-49
2023/07/21 11:14:26;;;;;;;2.50;1.97;;;33.90;25.30;;;;;;5049656;28;20497;-46
2023/07/21 11:16:53;;;;;;;3.10;1.80;;;33.30;25.50;;;;;;5046494;28;20440;-47
2023/07/21 11:19:20;;;;;;;4.57;2.00;;;33.40;25.80;;;;;;5052298;28;20435;-45
2023/07/21 11:21:48;;;;;;;2.00;1.80;;;33.60;25.50;;;;;;5047336;28;20443;-47
2023/07/21 11:24:23;;;;;;;1.70;1.60;;;33.60;25.20;;;;;;5050921;28;20581;-45
2023/07/21 11:26:48;;;;;;;5.67;1.70;;;34.00;25.50;;;;;;5049520;28;20539;-46
2023/07/21 11:29:15;;;;;;;2.00;1.80;;;34.30;24.90;;;;;;5050711;28;20522;-50
2023/07/21 11:31:41;;;;;;;3.20;1.80;;;34.40;24.60;;;;;;5050182;28;20192;-46
2023/07/21 11:34:29;;;;;;;3.40;2.30;;;34.50;25.10;;;;;;5048518;28;20457;-50
2023/07/21 11:36:58;;;;;;;4.30;1.60;;;34.50;26.10;;;;;;5044380;28;20490;-46
2023/07/21 11:39:24;;;;;;;5.10;2.23;;;34.50;25.50;;;;;;5052222;28;20489;-47
2023/07/21 11:41:55;;;;;;;3.30;2.30;;;34.60;25.10;;;;;;5049782;28;20475;-45
2023/07/21 11:44:27;;;;;;;2.37;1.87;;;34.70;25.20;;;;;;5050066;28;20233;-47
2023/07/21 11:46:56;;;;;;;3.07;1.97;;;34.80;24.70;;;;;;5051625;28;20447;-50
2023/07/21 11:49:26;;;;;;;3.50;2.10;;;34.70;24.70;;;;;;5049739;28;20447;-46
2023/07/21 11:51:52;;;;;;;3.53;1.97;;;34.70;25.00;;;;;;5050681;28;20523;-47
2023/07/21 11:54:25;;;;;;;3.20;1.93;;;34.70;24.90;;;;;;5040502;28;20450;-45
2023/07/21 11:56:53;;;;;;;2.13;2.00;;;34.70;25.00;;;;;;5048197;28;20470;-47
2023/07/21 11:59:19;;;;;;;4.57;2.10;;;34.70;24.70;;;;;;5052113;28;20784;-49
2023/07/21 12:01:46;;;;;;;5.03;1.97;;;34.50;25.00;;;;;;5051632;28;20427;-45
2023/07/21 12:04:12;;;;;;;2.60;1.80;;;34.50;25.10;;;;;;5052082;28;20565;-45
2023/07/21 12:06:39;;;;;;;2.43;1.97;;;34.40;25.00;;;;;;5047892;28;20721;-49
2023/07/21 12:09:05;;;;;;;3.40;2.30;;;34.20;25.30;;;;;;5051936;28;20192;-46
2023/07/21 12:11:35;;;;;;;10.40;2.13;;;34.10;25.40;;;;;;5051374;28;20408;-46
2023/07/21 12:14:01;;;;;;;3.50;2.00;;;34.00;25.50;;;;;;5050811;28;20566;-50
2023/07/21 12:16:27;;;;;;;19.77;4.10;;;33.90;25.50;;;;;;5047800;28;20821;-46
2023/07/21 12:18:53;;;;;;;4.00;2.07;;;33.90;25.90;;;;;;5044928;28;20443;-46
2023/07/21 12:21:18;;;;;;;2.37;2.00;;;33.80;25.60;;;;;;5047580;28;20678;-45
2023/07/21 12:23:44;;;;;;;2.07;1.83;;;33.70;25.60;;;;;;5050258;28;20260;-47
2023/07/21 12:26:10;;;;;;;14.33;3.73;;;33.50;25.50;;;;;;5047515;28;20196;-46
2023/07/21 12:28:36;;;;;;;5.80;2.57;;;33.30;25.80;;;;;;5051491;28;20276;-45
2023/07/21 12:31:02;;;;;;;3.57;2.60;;;33.10;26.00;;;;;;5048622;28;20193;-47
2023/07/21 12:33:28;;;;;;;3.70;2.80;;;33.10;26.10;;;;;;5044891;28;20197;-46
2023/07/21 12:35:54;;;;;;;5.57;1.70;;;33.00;25.80;;;;;;5047911;28;20443;-47
2023/07/21 12:38:20;;;;;;;2.73;1.97;;;33.00;26.10;;;;;;5047323;28;20430;-44
2023/07/21 12:40:46;;;;;;;2.50;2.30;;;33.00;26.10;;;;;;5048841;28;20451;-45
2023/07/21 12:43:12;;;;;;;7.03;2.00;;;32.90;26.00;;;;;;5046469;28;20193;-46
2023/07/21 12:45:38;;;;;;;1.97;1.73;;;32.90;26.30;;;;;;5049995;28;20446;-46